Time;durP1;ratioP1;P1;durP2;ratioP2;P2;SDS_P1;SDS_P2;PMS_P1;PMS_P2;Temp;Humidity;BMP_temperature;BMP_pressure;BME280_temperature;BME280_humidity;BME280_pressure;Samples;Min_cycle;Max_cycle;Signal;HPM_P1;HPM_P2
2022/08/10 00:00:52;;;;;;;1.13;0.98;;;;;;;23.23;44.96;102549.66;5047672;28;20525;-65
2022/08/10 00:03:21;;;;;;;2.70;1.20;;;;;;;23.20;44.58;102548.28;5056597;28;20048;-65
2022/08/10 00:05:49;;;;;;;4.35;1.58;;;;;;;23.19;44.83;102552.13;5055435;28;20068;-65
2022/08/10 00:08:20;;;;;;;2.92;1.38;;;;;;;23.17;44.61;102553.47;5064510;28;20052;-65
2022/08/10 00:10:51;;;;;;;1.77;1.23;;;;;;;23.15;44.77;102550.16;5057496;28;20498;-65
2022/08/10 00:13:18;;;;;;;1.65;1.30;;;;;;;23.10;44.94;102545.47;5064650;28;20072;-65
2022/08/10 00:15:46;;;;;;;4.65;1.15;;;;;;;23.13;45.03;102560.56;5061010;28;20514;-65
2022/08/10 00:18:23;;;;;;;1.70;1.10;;;;;;;23.09;44.70;102563.03;5062982;28;20069;-64
2022/08/10 00:21:02;;;;;;;1.60;1.05;;;;;;;23.07;45.17;102559.72;5057931;28;20045;-64
2022/08/10 00:23:29;;;;;;;2.67;1.08;;;;;;;23.04;45.28;102552.00;5062329;28;20045;-62
2022/08/10 00:25:57;;;;;;;3.15;1.10;;;;;;;23.03;45.23;102555.84;5059969;28;20052;-65
2022/08/10 00:28:25;;;;;;;1.42;1.00;;;;;;;23.03;45.45;102547.63;5062966;28;20123;-64
2022/08/10 00:30:53;;;;;;;4.50;1.23;;;;;;;23.00;45.21;102545.41;5063470;28;20045;-64
2022/08/10 00:33:22;;;;;;;4.55;1.52;;;;;;;22.97;45.23;102546.75;5052920;28;20049;-64
2022/08/10 00:35:50;;;;;;;1.73;1.13;;;;;;;22.97;45.23;102540.44;5061622;28;20136;-65
2022/08/10 00:38:18;;;;;;;4.10;1.33;;;;;;;22.94;45.36;102535.50;5062838;28;20068;-65
2022/08/10 00:40:45;;;;;;;3.67;1.20;;;;;;;22.92;45.54;102546.72;5051997;28;20076;-65
2022/08/10 00:43:13;;;;;;;5.85;1.20;;;;;;;22.92;45.54;102540.41;5063928;28;20085;-65
2022/08/10 00:45:49;;;;;;;2.47;1.20;;;;;;;22.90;45.69;102535.19;5062095;28;20055;-65
2022/08/10 00:48:29;;;;;;;3.00;1.30;;;;;;;22.90;45.44;102534.38;5062255;28;20048;-65
2022/08/10 00:50:58;;;;;;;1.55;1.20;;;;;;;22.89;45.61;102532.72;5062315;28;20071;-65
2022/08/10 00:53:26;;;;;;;4.30;1.20;;;;;;;22.88;45.35;102536.53;5062989;28;20082;-65
2022/08/10 00:55:54;;;;;;;1.45;1.20;;;;;;;22.88;45.44;102531.88;5062287;28;20049;-65
2022/08/10 00:58:43;;;;;;;5.53;1.80;;;;;;;22.86;45.44;102534.06;5059532;28;20048;-65
2022/08/10 01:01:10;;;;;;;2.85;1.20;;;;;;;22.84;45.59;102530.75;5062843;28;20056;-65
2022/08/10 01:04:01;;;;;;;1.88;1.10;;;;;;;22.82;45.52;102527.47;5064586;28;20117;-65
2022/08/10 01:07:01;;;;;;;1.58;1.13;;;;;;;22.82;45.47;102526.63;5057531;28;20057;-65
2022/08/10 01:09:35;;;;;;;2.70;1.20;;;;;;;22.80;45.50;102526.91;5047279;28;20049;-65
2022/08/10 01:12:09;;;;;;;1.52;1.00;;;;;;;22.79;45.68;102527.97;5057720;28;20064;-65
2022/08/10 01:15:07;;;;;;;4.03;1.40;;;;;;;22.78;45.61;102525.47;5062498;28;20053;-65
2022/08/10 01:17:46;;;;;;;3.30;1.25;;;;;;;22.75;45.97;102526.81;5059769;28;20049;-65
2022/08/10 01:20:28;;;;;;;1.52;1.20;;;;;;;22.69;46.06;102516.91;5060482;28;20052;-65
2022/08/10 01:23:25;;;;;;;4.20;1.25;;;;;;;22.71;45.76;102521.03;5053698;28;20086;-63
2022/08/10 01:26:19;;;;;;;2.67;1.10;;;;;;;22.71;45.72;102514.72;5052956;28;20101;-65
2022/08/10 01:29:20;;;;;;;2.28;1.30;;;;;;;22.66;46.03;102517.44;5059815;28;20045;-66
2022/08/10 01:31:53;;;;;;;2.05;1.30;;;;;;;22.64;46.14;102514.13;5061832;28;20083;-65
2022/08/10 01:34:26;;;;;;;2.13;1.25;;;;;;;22.61;46.14;102510.00;5054564;28;20077;-65
2022/08/10 01:36:59;;;;;;;1.27;1.10;;;;;;;22.58;46.21;102515.19;5058515;28;20069;-65
2022/08/10 01:39:32;;;;;;;4.43;1.35;;;;;;;22.56;46.17;102512.69;5055427;28;20052;-65
2022/08/10 01:42:03;;;;;;;2.55;1.13;;;;;;;22.55;46.30;102515.69;5062351;28;20079;-65
2022/08/10 01:44:35;;;;;;;2.13;1.30;;;;;;;22.54;46.10;102516.78;5055005;28;20068;-65
2022/08/10 01:50:02;;;;;;;3.10;2.03;;;;;;;22.50;46.51;102513.78;5058068;28;20049;-65
2022/08/10 01:52:31;;;;;;;2.65;1.05;;;;;;;22.49;46.29;102512.13;5052371;28;20045;-64
2022/08/10 01:55:00;;;;;;;2.08;1.05;;;;;;;22.45;46.66;102507.44;5062225;28;20048;-65
2022/08/10 01:57:31;;;;;;;4.22;1.63;;;;;;;22.39;46.59;102512.88;5055371;28;20360;-64
2022/08/10 02:00:01;;;;;;;2.47;1.50;;;;;;;22.41;46.44;102518.09;5061353;28;20080;-65
2022/08/10 02:02:33;;;;;;;3.35;1.38;;;;;;;22.42;46.49;102519.72;5062299;28;20136;-65
2022/08/10 02:05:03;;;;;;;2.75;1.50;;;;;;;22.39;46.59;102518.34;5061535;28;20049;-65
2022/08/10 02:07:34;;;;;;;3.75;1.48;;;;;;;22.37;46.76;102514.22;5059988;28;20041;-65
2022/08/10 02:10:09;;;;;;;2.97;1.40;;;;;;;22.32;46.94;102516.91;5062151;28;20048;-65
2022/08/10 02:12:39;;;;;;;2.10;1.40;;;;;;;22.29;46.84;102515.50;5059842;28;20041;-65
2022/08/10 02:15:10;;;;;;;2.83;1.70;;;;;;;22.28;47.18;102511.13;5062564;28;20041;-65
2022/08/10 02:17:43;;;;;;;2.15;1.30;;;;;;;22.26;47.37;102513.28;5061275;28;20072;-64
2022/08/10 02:20:33;;;;;;;2.03;1.77;;;;;;;22.24;47.20;102512.72;5057379;28;20045;-64
2022/08/10 02:23:05;;;;;;;3.15;1.77;;;;;;;22.20;47.11;102508.03;5061098;28;20098;-64
2022/08/10 02:25:33;;;;;;;2.33;1.50;;;;;;;22.15;47.50;102511.53;5062204;28;20045;-65
2022/08/10 02:28:13;;;;;;;2.63;1.30;;;;;;;22.17;47.26;102514.84;5060019;28;20045;-65
2022/08/10 02:31:01;;;;;;;2.22;1.50;;;;;;;22.17;47.29;102508.53;5054189;28;20410;-65
2022/08/10 02:33:32;;;;;;;4.70;1.52;;;;;;;22.15;47.44;102507.97;5055148;28;20499;-65
2022/08/10 02:36:06;;;;;;;4.10;1.30;;;;;;;22.16;47.54;102515.09;5055362;28;20049;-65
2022/08/10 02:38:40;;;;;;;2.47;1.60;;;;;;;22.15;47.33;102506.06;5058655;28;20052;-65
2022/08/10 02:41:32;;;;;;;3.67;1.65;;;;;;;22.13;47.57;102516.44;5056849;28;20048;-65
2022/08/10 02:44:25;;;;;;;3.08;1.60;;;;;;;22.13;47.48;102512.88;5056173;28;20048;-65
2022/08/10 02:47:21;;;;;;;2.65;1.40;;;;;;;22.12;47.62;102506.59;5050606;28;20056;-65
2022/08/10 02:49:59;;;;;;;2.17;1.27;;;;;;;22.11;47.47;102512.31;5061104;28;20414;-65
2022/08/10 02:52:33;;;;;;;2.60;1.50;;;;;;;22.02;47.38;102487.31;5055971;28;20052;-65
2022/08/10 02:55:05;;;;;;;2.45;1.60;;;;;;;22.08;47.31;102506.28;5059949;28;20053;-65
2022/08/10 02:57:51;;;;;;;3.45;1.90;;;;;;;22.07;47.58;102506.53;5053150;28;20069;-65
2022/08/10 03:00:44;;;;;;;2.22;1.48;;;;;;;22.06;47.61;102497.50;5056751;28;20132;-65
2022/08/10 03:03:19;;;;;;;2.50;1.40;;;;;;;22.05;47.67;102493.09;5060386;28;20140;-65
2022/08/10 03:05:53;;;;;;;2.47;1.65;;;;;;;22.03;47.60;102488.97;5062951;28;20045;-65
2022/08/10 03:08:24;;;;;;;2.50;1.60;;;;;;;22.02;47.50;102487.31;5053576;28;20521;-65
2022/08/10 03:10:54;;;;;;;2.40;1.30;;;;;;;22.00;47.67;102487.53;5060282;28;20509;-65
2022/08/10 03:13:23;;;;;;;4.03;1.90;;;;;;;21.97;47.77;102485.31;5061391;28;20072;-65
2022/08/10 03:15:51;;;;;;;3.35;1.38;;;;;;;21.94;47.70;102483.09;5058604;28;20045;-65
2022/08/10 03:18:23;;;;;;;2.47;1.63;;;;;;;21.93;48.05;102483.34;5056372;28;20081;-65
2022/08/10 03:20:53;;;;;;;1.98;1.40;;;;;;;21.92;48.09;102493.47;5064748;28;20041;-65
2022/08/10 03:23:24;;;;;;;2.33;1.60;;;;;;;21.90;48.12;102486.59;5061592;28;20056;-65
2022/08/10 03:25:55;;;;;;;3.80;1.77;;;;;;;21.88;48.05;102486.03;5065658;28;20081;-65
2022/08/10 03:28:25;;;;;;;2.42;1.48;;;;;;;21.86;48.29;102483.56;5061871;28;20073;-65
2022/08/10 03:30:54;;;;;;;4.10;1.73;;;;;;;21.86;48.16;102480.00;5053940;28;20083;-65
2022/08/10 03:33:24;;;;;;;1.30;1.20;;;;;;;21.84;48.12;102483.00;5063374;28;20041;-65
2022/08/10 03:35:53;;;;;;;1.80;1.50;;;;;;;21.83;48.28;102485.97;5064005;28;20060;-65
2022/08/10 03:38:43;;;;;;;2.15;1.40;;;;;;;21.81;48.15;102482.69;5059669;28;20063;-65
2022/08/10 03:41:13;;;;;;;1.83;1.65;;;;;;;21.79;48.18;102482.09;5059667;28;20049;-65
2022/08/10 03:43:46;;;;;;;2.97;1.70;;;;;;;21.78;48.35;102484.00;5054459;28;20045;-65
2022/08/10 03:46:18;;;;;;;2.63;1.70;;;;;;;21.76;48.44;102486.19;5060658;28;20095;-65
2022/08/10 03:48:49;;;;;;;2.42;1.70;;;;;;;21.75;48.47;102487.28;5060751;28;20041;-65
2022/08/10 03:51:20;;;;;;;2.03;1.63;;;;;;;21.73;48.47;102489.44;5065809;28;20060;-65
2022/08/10 03:53:49;;;;;;;2.85;1.50;;;;;;;21.72;48.36;102496.00;5062719;28;20087;-65
2022/08/10 03:56:35;;;;;;;2.65;1.50;;;;;;;21.70;48.63;102490.78;5060010;28;20055;-65
2022/08/10 03:59:05;;;;;;;4.95;1.67;;;;;;;21.67;48.89;102491.28;5065215;28;20083;-65
2022/08/10 04:01:33;;;;;;;3.13;1.80;;;;;;;21.62;48.69;102490.41;5062416;28;20052;-65
2022/08/10 04:04:21;;;;;;;5.70;1.70;;;;;;;21.62;48.69;102490.41;5060904;28;20045;-65
2022/08/10 04:06:55;;;;;;;2.17;1.58;;;;;;;21.60;48.43;102492.56;5064755;28;20049;-65
2022/08/10 04:09:25;;;;;;;5.20;1.77;;;;;;;21.58;48.85;102497.47;5055903;28;20044;-65
2022/08/10 04:12:14;;;;;;;3.78;1.90;;;;;;;21.55;48.77;102492.50;5054327;28;20114;-65
2022/08/10 04:14:41;;;;;;;2.20;1.48;;;;;;;21.54;48.91;102490.84;5063515;28;20071;-65
2022/08/10 04:17:20;;;;;;;3.15;2.05;;;;;;;21.52;49.22;102495.75;5058501;28;20045;-65
2022/08/10 04:20:13;;;;;;;2.35;1.85;;;;;;;21.51;49.30;102494.09;5064161;28;20053;-65
2022/08/10 04:22:44;;;;;;;1.85;1.60;;;;;;;21.51;48.94;102494.09;5061132;28;20053;-66
2022/08/10 04:25:14;;;;;;;4.13;1.88;;;;;;;21.50;49.10;102493.28;5058518;28;20311;-66
2022/08/10 04:27:43;;;;;;;2.67;1.42;;;;;;;21.49;48.89;102490.78;5054660;28;20073;-65
2022/08/10 04:30:11;;;;;;;2.85;1.60;;;;;;;21.48;48.85;102489.13;5059598;28;20477;-66
2022/08/10 04:32:41;;;;;;;2.67;1.40;;;;;;;21.47;48.83;102487.47;5059185;28;20076;-66
2022/08/10 04:35:10;;;;;;;3.65;1.90;;;;;;;21.47;49.19;102495.69;5060586;28;20049;-66
2022/08/10 04:37:39;;;;;;;1.80;1.65;;;;;;;21.44;49.10;102492.38;5058671;28;20081;-66
2022/08/10 04:40:17;;;;;;;2.47;1.83;;;;;;;21.44;49.18;102500.59;4708292;28;10000137;-66
2022/08/10 04:42:57;;;;;;;6.95;2.25;;;;;;;21.43;49.24;102495.38;5059131;28;20056;-65
2022/08/10 04:45:30;;;;;;;2.65;1.73;;;;;;;21.42;48.99;102493.72;5055118;28;20045;-65
2022/08/10 04:48:18;;;;;;;2.30;1.77;;;;;;;21.38;49.18;102490.66;5054998;28;20052;-65
2022/08/10 04:51:06;;;;;;;3.20;2.00;;;;;;;21.38;49.48;102490.66;5054818;28;20048;-66
2022/08/10 04:53:37;;;;;;;2.92;2.00;;;;;;;21.37;49.18;102489.00;5055904;28;20057;-66
2022/08/10 04:56:26;;;;;;;1.88;1.70;;;;;;;21.36;49.36;102492.81;5059491;28;20052;-66
2022/08/10 04:58:59;;;;;;;2.13;1.90;;;;;;;21.34;49.56;102502.38;5060012;28;20061;-66
2022/08/10 05:01:27;;;;;;;1.80;1.48;;;;;;;21.32;49.21;102493.59;5055042;28;20126;-67
2022/08/10 05:04:14;;;;;;;3.80;1.80;;;;;;;21.30;49.58;102491.09;5057956;28;20041;-65
2022/08/10 05:07:02;;;;;;;3.40;1.83;;;;;;;21.29;49.49;102486.72;5064622;28;20045;-65
2022/08/10 05:09:30;;;;;;;4.90;1.50;;;;;;;21.28;49.59;102495.16;5054026;28;20192;-66
2022/08/10 05:11:59;;;;;;;3.42;2.05;;;;;;;21.27;49.89;102493.53;5056233;28;20098;-67
2022/08/10 05:14:26;;;;;;;3.85;1.67;;;;;;;21.25;49.60;102493.78;5061320;28;20077;-67
2022/08/10 05:16:54;;;;;;;3.70;1.90;;;;;;;21.23;49.84;102490.47;5051584;28;20123;-66
2022/08/10 05:19:22;;;;;;;3.13;1.73;;;;;;;21.23;49.77;102485.00;5047412;28;20549;-68
2022/08/10 05:22:10;;;;;;;3.78;1.70;;;;;;;21.22;49.63;102483.34;5055461;28;20116;-67
2022/08/10 05:24:37;;;;;;;2.78;2.10;;;;;;;21.22;49.84;102486.06;5053911;28;20080;-64
2022/08/10 05:27:07;;;;;;;3.97;2.03;;;;;;;21.22;49.89;102493.44;5067631;28;20089;-69
2022/08/10 05:29:37;;;;;;;3.05;1.52;;;;;;;21.20;49.82;102490.94;5052347;28;20113;-64
2022/08/10 05:32:05;;;;;;;3.22;1.80;;;;;;;21.20;49.42;102496.41;5051822;28;20053;-71
2022/08/10 05:34:32;;;;;;;3.58;1.80;;;;;;;21.19;49.70;102494.75;5056413;28;20136;-66
2022/08/10 05:37:01;;;;;;;2.60;1.70;;;;;;;21.20;49.49;102501.06;5062899;28;20078;-67
2022/08/10 05:39:29;;;;;;;3.05;1.83;;;;;;;21.19;49.45;102494.75;5054080;28;20451;-66
2022/08/10 05:42:01;;;;;;;4.50;1.98;;;;;;;21.18;49.88;102501.31;5067254;28;20097;-65
2022/08/10 05:44:30;;;;;;;8.38;2.42;;;;;;;21.17;50.48;102496.09;5049864;28;20053;-66
2022/08/10 05:46:58;;;;;;;4.00;2.70;;;;;;;21.17;50.48;102499.66;5059765;28;21130;-67
2022/08/10 05:49:26;;;;;;;5.03;1.80;;;;;;;21.18;50.44;102500.47;5060196;28;20095;-65
2022/08/10 05:51:53;;;;;;;1.70;1.45;;;;;;;21.17;50.33;102502.38;5062140;28;20068;-65
2022/08/10 05:54:23;;;;;;;2.30;1.75;;;;;;;21.19;50.46;102502.13;5062343;28;20084;-65
2022/08/10 05:56:51;;;;;;;2.22;1.58;;;;;;;21.19;50.17;102502.13;5057723;28;20060;-65
2022/08/10 05:59:28;;;;;;;2.22;1.73;;;;;;;21.21;50.11;102514.47;5057105;28;20049;-66
2022/08/10 06:02:24;;;;;;;4.00;1.70;;;;;;;21.21;50.14;102513.63;5054211;28;20055;-67
2022/08/10 06:05:10;;;;;;;5.47;2.00;;;;;;;21.19;49.98;102508.41;5059922;28;20076;-65
2022/08/10 06:07:42;;;;;;;2.67;1.58;;;;;;;21.19;50.21;102510.31;5061039;28;20049;-66
2022/08/10 06:10:15;;;;;;;4.20;1.90;;;;;;;21.21;50.07;102508.16;5054414;28;20087;-66
2022/08/10 06:16:02;;;;;;;2.90;1.88;;;;;;;21.26;49.67;102511.84;5058693;28;20041;-66
2022/08/10 06:18:32;;;;;;;2.55;1.52;;;;;;;21.28;49.85;102503.38;5059298;28;20077;-66
2022/08/10 06:21:00;;;;;;;2.03;1.65;;;;;;;21.30;49.78;102510.25;5051246;28;20092;-66
2022/08/10 06:23:30;;;;;;;3.50;1.52;;;;;;;21.31;49.87;102506.44;5057113;28;20091;-65
2022/08/10 06:25:58;;;;;;;1.85;1.35;;;;;;;21.36;49.81;102513.88;5056781;28;20056;-65
2022/08/10 06:28:42;;;;;;;2.88;1.70;;;;;;;21.38;49.84;102506.25;5060593;28;20045;-66
2022/08/10 06:31:30;;;;;;;2.08;1.45;;;;;;;21.40;49.88;102504.91;4709216;28;10000195;-66
2022/08/10 06:34:20;;;;;;;2.83;1.80;;;;;;;21.43;49.95;102506.31;5066598;28;20056;-66
2022/08/10 06:36:49;;;;;;;2.53;1.58;;;;;;;21.42;49.90;102505.47;5060587;28;20049;-66
2022/08/10 06:39:17;;;;;;;3.65;2.00;;;;;;;21.45;49.92;102509.63;5060940;28;20064;-65
2022/08/10 06:42:09;;;;;;;3.35;1.80;;;;;;;21.51;49.98;102499.56;5060988;28;20111;-65
2022/08/10 06:44:51;;;;;;;2.10;1.55;;;;;;;21.52;49.73;102501.22;5059142;28;20045;-65
2022/08/10 06:47:20;;;;;;;2.50;1.60;;;;;;;21.55;49.90;102495.25;5058893;28;20104;-65
2022/08/10 06:49:54;;;;;;;3.10;1.90;;;;;;;21.58;49.65;102494.72;5056030;28;20049;-65
2022/08/10 06:52:30;;;;;;;5.75;2.35;;;;;;;21.59;49.78;102505.41;5060514;28;20095;-65
2022/08/10 06:55:00;;;;;;;3.50;1.70;;;;;;;21.61;49.74;102503.25;5057260;28;20505;-65
2022/08/10 06:57:34;;;;;;;2.45;1.48;;;;;;;21.64;49.80;102505.47;5065057;28;20325;-66
2022/08/10 07:00:06;;;;;;;3.35;1.77;;;;;;;21.67;49.64;102507.72;5067221;28;20063;-66
2022/08/10 07:02:41;;;;;;;6.90;2.50;;;;;;;21.71;50.26;102510.75;5066589;28;20052;-66
2022/08/10 07:05:18;;;;;;;3.63;1.65;;;;;;;21.74;49.57;102508.34;5063975;28;20076;-66
2022/08/10 07:07:49;;;;;;;3.15;1.90;;;;;;;21.77;49.38;102509.72;5066700;28;20048;-67
2022/08/10 07:10:18;;;;;;;2.90;2.15;;;;;;;21.78;49.63;102511.38;5059279;28;20079;-66
2022/08/10 07:12:48;;;;;;;3.53;1.80;;;;;;;21.81;49.58;102510.03;5066813;28;20068;-66
2022/08/10 07:15:17;;;;;;;4.00;1.75;;;;;;;21.82;49.60;102511.69;5065572;28;20446;-66
2022/08/10 07:17:47;;;;;;;4.75;1.92;;;;;;;21.84;49.64;102512.28;5066876;28;20044;-66
2022/08/10 07:20:18;;;;;;;2.80;1.63;;;;;;;21.84;49.51;102510.38;5064888;28;20099;-66
2022/08/10 07:22:48;;;;;;;2.90;1.90;;;;;;;21.86;49.50;102510.94;5067057;28;20040;-65
2022/08/10 07:25:37;;;;;;;3.65;2.10;;;;;;;21.87;49.55;102515.31;5065686;28;20116;-66
2022/08/10 07:28:05;;;;;;;3.08;1.70;;;;;;;21.89;49.42;102515.06;5065589;28;20076;-66
2022/08/10 07:30:37;;;;;;;7.00;1.90;;;;;;;21.90;49.73;102522.19;5064888;28;20088;-66
2022/08/10 07:33:07;;;;;;;3.80;1.75;;;;;;;21.91;49.65;102523.84;5065322;28;20053;-65
2022/08/10 07:35:38;;;;;;;3.50;2.00;;;;;;;21.93;49.58;102522.50;5063783;28;20090;-65
2022/08/10 07:38:13;;;;;;;3.72;1.77;;;;;;;21.94;49.58;102515.13;5066797;28;20482;-64
2022/08/10 07:40:42;;;;;;;3.35;1.83;;;;;;;21.94;49.79;102518.69;5063249;28;20064;-65
2022/08/10 07:43:11;;;;;;;3.30;2.00;;;;;;;21.95;49.79;102519.50;5063555;28;20063;-64
2022/08/10 07:45:39;;;;;;;4.07;2.00;;;;;;;21.97;49.69;102517.34;5065440;28;20049;-66
2022/08/10 07:48:11;;;;;;;3.00;1.58;;;;;;;21.95;49.86;102512.13;5065663;28;20060;-66
2022/08/10 07:50:42;;;;;;;5.50;2.08;;;;;;;21.97;49.60;102520.09;5061919;28;20064;-65
2022/08/10 07:53:13;;;;;;;2.50;1.52;;;;;;;21.97;49.77;102509.13;5064831;28;20041;-65
2022/08/10 07:55:42;;;;;;;4.72;1.75;;;;;;;21.95;49.92;102516.78;5063017;28;20053;-65
2022/08/10 07:58:33;;;;;;;3.05;1.80;;;;;;;21.95;49.79;102531.28;5063565;28;20441;-65
2022/08/10 08:01:01;;;;;;;3.47;2.28;;;;;;;21.93;49.74;102525.25;5064621;28;20088;-64
2022/08/10 08:03:31;;;;;;;5.70;1.88;;;;;;;21.94;49.87;102515.13;5064093;28;20506;-66
2022/08/10 08:06:01;;;;;;;3.38;1.58;;;;;;;21.94;49.97;102521.44;5062757;28;20075;-66
2022/08/10 08:08:40;;;;;;;4.47;1.67;;;;;;;21.94;49.96;102524.16;5062356;28;20055;-66
2022/08/10 08:11:09;;;;;;;3.88;2.28;;;;;;;21.94;49.88;102520.59;5058776;28;20084;-65
2022/08/10 08:13:54;;;;;;;5.05;2.53;;;;;;;21.95;50.00;102525.81;5045981;28;20049;-67
2022/08/10 08:16:23;;;;;;;4.40;1.70;;;;;;;21.95;49.94;102519.50;5054043;28;20048;-65
2022/08/10 08:18:55;;;;;;;5.30;1.75;;;;;;;21.96;50.07;102524.72;4365429;28;10021617;-65
2022/08/10 08:21:45;;;;;;;6.90;2.47;;;;;;;21.96;50.26;102524.72;5096876;28;20062;-65
2022/08/10 08:24:35;;;;;;;4.93;2.20;;;;;;;21.98;50.18;102522.56;5094384;28;20153;-65
2022/08/10 08:27:06;;;;;;;3.55;1.65;;;;;;;21.89;50.29;102509.59;5098405;28;20458;-64
2022/08/10 08:29:40;;;;;;;3.28;1.73;;;;;;;21.98;50.12;102519.81;5098497;28;20052;-65
2022/08/10 08:32:10;;;;;;;5.55;1.90;;;;;;;21.99;50.46;102524.22;5096613;28;20063;-64
2022/08/10 08:34:41;;;;;;;4.60;1.80;;;;;;;21.98;50.44;102516.25;5101536;28;20051;-65
2022/08/10 08:37:12;;;;;;;3.05;1.83;;;;;;;22.00;50.57;102509.44;5098196;28;20096;-65
2022/08/10 08:40:00;;;;;;;3.45;1.70;;;;;;;22.01;50.30;102508.34;5099408;28;20521;-65
2022/08/10 08:42:48;;;;;;;4.82;2.38;;;;;;;22.03;50.52;102517.16;5094143;28;20067;-65
2022/08/10 08:45:23;;;;;;;4.05;2.15;;;;;;;22.05;50.32;102515.00;5105214;28;20047;-65
2022/08/10 08:48:08;;;;;;;3.22;1.70;;;;;;;22.03;50.29;102514.44;5095536;28;20079;-65
2022/08/10 08:50:50;;;;;;;6.45;1.85;;;;;;;22.08;50.39;102510.91;5094747;28;20090;-66
2022/08/10 08:53:44;;;;;;;2.42;1.60;;;;;;;22.10;50.55;102514.22;5096939;28;20151;-65
2022/08/10 08:56:39;;;;;;;6.47;1.67;;;;;;;22.08;50.58;102509.00;5095855;28;20048;-65
2022/08/10 08:59:41;;;;;;;4.60;1.52;;;;;;;22.15;50.53;102517.03;5070075;28;20068;-67
2022/08/10 09:02:21;;;;;;;4.10;1.73;;;;;;;22.17;50.58;102506.63;5052934;28;20179;-65
2022/08/10 09:05:08;;;;;;;2.55;1.70;;;;;;;22.20;50.48;102508.03;5059929;28;20049;-65
2022/08/10 09:07:56;;;;;;;8.63;1.85;;;;;;;22.23;50.57;102507.50;5057790;28;20171;-65
2022/08/10 09:10:40;;;;;;;5.00;1.95;;;;;;;22.25;50.32;102508.06;5059888;28;20127;-65
2022/08/10 09:13:17;;;;;;;4.15;1.92;;;;;;;22.26;50.33;102501.50;5061442;28;20052;-64
2022/08/10 09:15:51;;;;;;;3.03;1.98;;;;;;;22.28;50.25;102505.63;5051645;28;20053;-65
2022/08/10 09:18:23;;;;;;;6.07;1.83;;;;;;;22.30;50.27;102506.22;5055911;28;20045;-64
2022/08/10 09:20:58;;;;;;;6.05;2.20;;;;;;;22.31;50.17;102499.63;5058308;28;20615;-65
2022/08/10 09:23:39;;;;;;;2.35;1.75;;;;;;;22.33;50.10;102493.91;5055417;28;20083;-65
2022/08/10 09:26:37;;;;;;;3.90;1.83;;;;;;;22.34;49.88;102495.56;5056493;28;20048;-64
2022/08/10 09:29:07;;;;;;;4.38;1.83;;;;;;;22.37;49.71;102495.03;5055062;28;20072;-64
2022/08/10 09:31:45;;;;;;;7.38;2.10;;;;;;;22.39;49.79;102492.88;5050803;28;20053;-64
2022/08/10 09:34:43;;;;;;;6.45;2.45;;;;;;;22.42;49.68;102488.78;5061455;28;20060;-64
2022/08/10 09:37:40;;;;;;;3.10;1.92;;;;;;;22.46;49.82;102484.41;5059600;28;20048;-63
2022/08/10 09:40:36;;;;;;;2.20;1.67;;;;;;;22.48;49.80;102485.81;5053141;28;20041;-64
2022/08/10 09:43:35;;;;;;;3.58;1.98;;;;;;;22.52;49.77;102477.91;5049871;28;20133;-64
2022/08/10 09:46:09;;;;;;;4.40;2.65;;;;;;;22.57;49.78;102477.91;5055641;28;20049;-64
2022/08/10 09:48:45;;;;;;;4.75;2.10;;;;;;;22.62;49.75;102476.03;5063296;28;20079;-64
2022/08/10 09:51:26;;;;;;;3.75;1.75;;;;;;;22.67;49.92;102473.31;5053970;28;20132;-63
2022/08/10 09:54:24;;;;;;;6.18;1.88;;;;;;;22.71;49.64;102471.69;5058249;28;20422;-64
2022/08/10 09:57:03;;;;;;;5.30;2.13;;;;;;;22.74;49.72;102468.44;5057117;28;20083;-63
2022/08/10 09:59:57;;;;;;;2.40;1.77;;;;;;;22.79;49.76;102469.56;5061233;28;20148;-63
2022/08/10 10:02:42;;;;;;;3.15;1.85;;;;;;;22.83;49.73;102468.78;5066283;28;20093;-63
2022/08/10 10:05:25;;;;;;;3.70;2.22;;;;;;;22.87;49.72;102464.44;5054033;28;20053;-63
2022/08/10 10:08:02;;;;;;;2.53;1.88;;;;;;;22.93;49.92;102460.63;5061596;28;20053;-63
2022/08/10 10:10:45;;;;;;;4.88;2.65;;;;;;;22.95;49.71;102457.63;5055737;28;20084;-63
2022/08/10 10:13:20;;;;;;;6.70;2.00;;;;;;;22.99;49.49;102454.09;5055359;28;20501;-63
2022/08/10 10:16:23;;;;;;;3.15;1.88;;;;;;;23.04;49.18;102456.84;5054746;28;20426;-63
2022/08/10 10:19:04;;;;;;;4.20;2.10;;;;;;;23.09;49.54;102447.00;5055600;28;20063;-63
2022/08/10 10:21:43;;;;;;;3.25;1.83;;;;;;;23.12;49.25;102436.31;5054151;28;20553;-64
2022/08/10 10:24:32;;;;;;;3.83;1.85;;;;;;;23.18;49.49;102428.94;5059557;28;20045;-64
2022/08/10 10:27:07;;;;;;;3.97;1.73;;;;;;;23.22;49.24;102428.13;5056096;28;20090;-65
2022/08/10 10:29:49;;;;;;;5.25;2.38;;;;;;;23.29;48.90;102436.94;5065086;28;20053;-65
2022/08/10 10:32:39;;;;;;;4.45;1.80;;;;;;;23.34;49.06;102433.41;5059203;28;20144;-64
2022/08/10 10:35:18;;;;;;;6.43;2.47;;;;;;;23.38;48.76;102429.84;5054600;28;20057;-65
2022/08/10 10:37:50;;;;;;;4.55;2.20;;;;;;;23.42;48.67;102426.56;5060758;28;20053;-65
2022/08/10 10:40:37;;;;;;;4.13;2.15;;;;;;;23.45;48.36;102418.63;5062090;28;20053;-64
2022/08/10 10:43:11;;;;;;;3.63;2.28;;;;;;;23.49;48.04;102421.63;5061501;28;20068;-64
2022/08/10 10:45:55;;;;;;;4.07;2.42;;;;;;;23.52;47.68;102418.34;5061098;28;20051;-64
2022/08/10 10:48:32;;;;;;;6.85;2.42;;;;;;;23.54;47.43;102408.78;5061531;28;20489;-65
2022/08/10 10:51:07;;;;;;;3.58;2.08;;;;;;;23.62;47.50;102418.41;5065110;28;20049;-63
2022/08/10 10:53:43;;;;;;;5.57;2.28;;;;;;;23.75;48.05;102408.81;5062183;28;20132;-64
2022/08/10 10:56:20;;;;;;;4.47;2.00;;;;;;;23.85;47.83;102408.84;5063444;28;20049;-64
2022/08/10 10:58:53;;;;;;;;;;;;;;;23.99;46.96;102399.78;5065351;28;20090;-65
2022/08/10 11:01:31;;;;;;;7.30;2.03;;;;;;;24.11;46.54;102404.19;5064419;28;19952;-65
2022/08/10 11:04:11;;;;;;;4.13;2.20;;;;;;;24.14;46.21;102398.13;5065845;28;20045;-65
2022/08/10 11:06:52;;;;;;;2.95;1.85;;;;;;;24.18;46.93;102397.31;5052013;28;20048;-65
2022/08/10 11:09:27;;;;;;;5.68;2.13;;;;;;;24.20;46.74;102397.88;5053969;28;20083;-64
2022/08/10 11:12:24;;;;;;;5.55;2.42;;;;;;;24.28;46.90;102393.72;4708063;28;10000681;-65
2022/08/10 11:15:03;;;;;;;3.47;2.00;;;;;;;24.34;47.05;102387.13;5057094;28;20060;-65
2022/08/10 11:17:38;;;;;;;3.22;1.80;;;;;;;24.37;46.84;102383.84;5058221;28;20440;-65
2022/08/10 11:20:16;;;;;;;7.28;2.10;;;;;;;24.39;45.53;102381.63;5061647;28;20092;-65
2022/08/10 11:22:52;;;;;;;5.03;2.75;;;;;;;24.41;46.18;102379.44;5055141;28;20045;-64
2022/08/10 11:25:27;;;;;;;4.32;2.03;;;;;;;24.45;46.28;102374.19;5060079;28;20049;-65
2022/08/10 11:28:03;;;;;;;6.15;2.10;;;;;;;24.50;46.53;102380.50;5061631;28;20056;-65
2022/08/10 11:30:33;;;;;;;;;;;;;;;24.54;46.08;102373.34;5060649;28;20077;-65
2022/08/10 11:33:13;;;;;;;3.97;1.88;;;;;;;24.57;45.90;102375.53;5058964;28;19924;-64
2022/08/10 11:36:03;;;;;;;3.88;2.42;;;;;;;24.66;46.07;102371.13;5059189;28;20067;-66
2022/08/10 11:38:37;;;;;;;3.30;1.88;;;;;;;24.74;46.43;102372.47;5062238;28;20287;-66
2022/08/10 11:41:41;;;;;;;2.97;1.77;;;;;;;24.81;46.33;102375.75;5057635;28;20067;-66
2022/08/10 11:44:33;;;;;;;4.20;2.20;;;;;;;24.82;44.21;102365.56;5056336;28;20043;-66
2022/08/10 11:47:08;;;;;;;3.78;1.85;;;;;;;24.77;43.99;102363.66;5057305;28;20084;-65
2022/08/10 11:49:53;;;;;;;3.28;2.03;;;;;;;24.81;44.65;102364.75;5066314;28;20081;-68
2022/08/10 11:52:34;;;;;;;5.73;2.20;;;;;;;24.86;45.15;102361.97;5062294;28;20041;-64
2022/08/10 11:55:09;;;;;;;5.35;2.60;;;;;;;24.93;45.04;102361.66;5055457;28;20046;-65
2022/08/10 11:57:41;;;;;;;2.67;2.05;;;;;;;24.98;44.36;102346.00;5064633;28;20110;-64
2022/08/10 12:00:21;;;;;;;3.85;2.15;;;;;;;25.01;43.83;102352.88;5062992;28;20071;-64
2022/08/10 12:02:54;;;;;;;5.05;2.75;;;;;;;25.07;43.83;102356.41;5059843;28;20540;-64
2022/08/10 12:05:26;;;;;;;6.28;1.98;;;;;;;25.12;44.28;102351.72;5056139;28;20048;-64
2022/08/10 12:08:17;;;;;;;2.92;2.05;;;;;;;25.20;44.69;102351.13;5064655;28;20100;-64
2022/08/10 12:11:05;;;;;;;2.95;1.95;;;;;;;25.30;44.50;102350.22;5066080;28;20090;-64
2022/08/10 12:13:39;;;;;;;4.90;2.00;;;;;;;25.33;42.98;102346.91;5063846;28;20045;-64